Terminal Aerodrome Forecast
Issued by NWS Charleston, WV

Current Version | Previous Version | Text Only | Print | Product List | Glossary Off
Versions: 1 2 3 4 5 6 7 8 9 10 11 12 13 14 15 16 17 18 19 20 21 22 23 24 25 26 27

409
FTUS41 KRLX 270905 AAA
TAFCRW
TAF AMD
KCRW 270905Z 2709/2806 19004KT P6SM FEW025 SCT060 OVC080
     FM271000 21004KT P6SM BKN025 OVC060
     FM271500 23005KT P6SM BKN045
     FM280200 17003KT P6SM SHRA VCTS BKN070CB=

USA.gov is the U.S. government's official web portal to all federal, state and local government web resources and services.